Time;durP1;ratioP1;P1;durP2;ratioP2;P2;SDS_P1;SDS_P2;PMS_P1;PMS_P2;Temp;Humidity;BMP_temperature;BMP_pressure;BME280_temperature;BME280_humidity;BME280_pressure;Samples;Min_cycle;Max_cycle;Signal;HPM_P1;HPM_P2
2022/12/28 08:29:58;;;;;;;3.30;2.47;;;3.20;99.90;;;;;;5137171;27;20661;-81
2022/12/28 08:32:24;;;;;;;2.43;2.23;;;3.20;99.90;;;;;;5135238;28;20271;-81
2022/12/28 08:34:50;;;;;;;4.57;3.27;;;3.30;99.90;;;;;;5137247;27;20651;-81
2022/12/28 08:37:15;;;;;;;5.97;3.80;;;3.40;99.90;;;;;;5134997;28;20689;-81
2022/12/28 08:39:41;;;;;;;3.20;2.13;;;3.50;99.90;;;;;;5134296;28;20217;-81
2022/12/28 08:42:07;;;;;;;3.10;2.23;;;3.50;99.90;;;;;;5135926;27;20585;-81
2022/12/28 08:44:32;;;;;;;5.60;4.27;;;3.50;99.90;;;;;;5134462;28;20197;-81
2022/12/28 08:46:58;;;;;;;3.50;2.67;;;4.20;99.90;;;;;;5135689;27;20499;-81
2022/12/28 08:49:23;;;;;;;3.07;1.80;;;5.00;99.90;;;;;;5133795;28;20214;-82
2022/12/28 08:51:49;;;;;;;4.17;1.63;;;5.50;99.90;;;;;;5133175;28;20204;-81
2022/12/28 08:54:15;;;;;;;2.23;1.43;;;6.10;99.90;;;;;;5132360;28;20179;-82
2022/12/28 08:56:43;;;;;;;1.10;1.00;;;6.50;99.90;;;;;;5133097;27;20176;-82
2022/12/28 08:59:15;;;;;;;2.10;1.33;;;6.60;99.90;;;;;;5134607;28;20263;-82
2022/12/28 09:01:41;;;;;;;2.27;1.47;;;6.70;99.90;;;;;;5138300;28;20240;-82
2022/12/28 09:04:10;;;;;;;1.40;1.07;;;6.20;99.90;;;;;;5140720;27;20176;-82
2022/12/28 09:06:38;;;;;;;2.33;1.23;;;5.40;99.90;;;;;;5140755;27;20188;-81
2022/12/28 09:09:06;;;;;;;1.47;1.20;;;5.00;99.90;;;;;;5138427;28;20221;-82
2022/12/28 09:11:35;;;;;;;1.63;1.13;;;4.90;99.90;;;;;;5138996;28;20174;-81
2022/12/28 09:14:05;;;;;;;1.70;1.20;;;4.70;99.90;;;;;;5138768;28;20184;-81
2022/12/28 09:16:31;;;;;;;1.60;1.20;;;4.70;99.90;;;;;;5140220;27;20637;-81
2022/12/28 09:18:59;;;;;;;1.53;1.37;;;4.90;99.90;;;;;;5140758;27;20202;-81
2022/12/28 09:21:28;;;;;;;3.40;1.27;;;5.10;99.90;;;;;;5140212;27;20226;-81
2022/12/28 09:23:54;;;;;;;2.90;1.60;;;5.10;99.90;;;;;;5138049;28;20539;-82
2022/12/28 09:26:23;;;;;;;2.87;1.90;;;5.30;99.90;;;;;;5139065;28;20194;-81
2022/12/28 09:28:52;;;;;;;3.23;1.43;;;5.30;99.90;;;;;;5137615;28;20215;-81
2022/12/28 09:31:19;;;;;;;3.47;1.30;;;5.10;99.90;;;;;;5138228;28;20261;-81
2022/12/28 09:33:57;;;;;;;2.00;1.60;;;5.10;99.90;;;;;;5138332;28;20532;-81
2022/12/28 09:36:24;;;;;;;2.97;1.87;;;5.00;99.90;;;;;;5137438;28;20275;-81
2022/12/28 09:38:50;;;;;;;2.40;1.80;;;4.90;99.90;;;;;;5139598;27;20225;-81
2022/12/28 09:41:22;;;;;;;2.43;1.67;;;4.90;99.90;;;;;;5123894;28;20642;-82
2022/12/28 09:43:52;;;;;;;4.03;2.00;;;4.80;99.90;;;;;;5125042;28;20187;-82
2022/12/28 09:46:21;;;;;;;2.73;2.00;;;4.70;99.90;;;;;;5125121;28;20183;-82
2022/12/28 09:48:53;;;;;;;2.40;1.90;;;4.90;99.90;;;;;;5124176;28;20301;-81
2022/12/28 09:51:23;;;;;;;2.47;1.90;;;5.00;99.90;;;;;;5124207;28;20227;-82
2022/12/28 09:53:49;;;;;;;2.93;2.03;;;4.90;99.90;;;;;;5125438;28;20739;-81
2022/12/28 09:56:24;;;;;;;2.53;2.07;;;4.90;99.90;;;;;;5125082;28;20176;-82
2022/12/28 09:58:51;;;;;;;3.00;2.17;;;4.90;99.90;;;;;;5124105;28;20207;-81
2022/12/28 10:01:18;;;;;;;4.93;3.27;;;4.80;99.90;;;;;;5123966;28;20179;-81
2022/12/28 10:03:45;;;;;;;6.10;2.40;;;4.70;99.90;;;;;;5125320;28;20533;-81
2022/12/28 10:06:12;;;;;;;2.57;1.83;;;4.70;99.90;;;;;;5123344;28;20310;-81
2022/12/28 10:08:51;;;;;;;3.77;2.00;;;4.70;99.90;;;;;;5124309;28;20819;-81
2022/12/28 10:11:28;;;;;;;3.70;1.60;;;4.70;99.90;;;;;;5124489;28;20179;-81
2022/12/28 10:13:57;;;;;;;2.17;1.60;;;4.90;99.90;;;;;;5123666;28;20184;-81
2022/12/28 10:16:26;;;;;;;1.83;1.63;;;5.00;99.90;;;;;;5125315;28;20247;-81
2022/12/28 10:18:52;;;;;;;2.73;1.40;;;5.00;99.90;;;;;;5123582;28;20206;-81
2022/12/28 10:21:21;;;;;;;2.87;1.77;;;5.20;99.90;;;;;;5124045;28;20187;-81
2022/12/28 10:23:50;;;;;;;2.10;1.50;;;5.20;99.90;;;;;;5124662;28;20183;-81
2022/12/28 10:26:17;;;;;;;2.07;1.50;;;5.40;99.90;;;;;;5124267;28;20211;-82
2022/12/28 10:28:48;;;;;;;3.87;1.80;;;5.50;99.90;;;;;;5124448;28;20687;-82
2022/12/28 10:31:15;;;;;;;2.27;1.40;;;5.80;99.90;;;;;;5124858;28;20195;-81
2022/12/28 10:33:50;;;;;;;3.33;2.40;;;5.80;99.90;;;;;;5123262;28;20171;-82
2022/12/28 10:36:17;;;;;;;2.83;2.00;;;5.80;99.90;;;;;;5124089;28;20160;-81
2022/12/28 10:38:49;;;;;;;3.13;2.00;;;5.80;99.90;;;;;;5123431;28;20697;-81
2022/12/28 10:41:17;;;;;;;2.73;2.20;;;5.80;99.90;;;;;;5123944;28;20199;-81
2022/12/28 10:43:50;;;;;;;2.90;1.73;;;5.90;99.90;;;;;;5125358;28;20633;-81
2022/12/28 10:46:19;;;;;;;2.93;1.73;;;6.10;99.90;;;;;;5123583;28;20177;-81
2022/12/28 10:48:56;;;;;;;2.17;1.50;;;6.40;99.90;;;;;;5124334;28;20218;-82
2022/12/28 10:51:24;;;;;;;2.67;1.70;;;6.60;99.90;;;;;;5123164;28;20212;-82
2022/12/28 10:53:53;;;;;;;1.20;1.10;;;6.70;99.90;;;;;;5124116;28;20183;-82
2022/12/28 10:56:23;;;;;;;3.83;1.43;;;6.70;99.90;;;;;;5124158;28;20179;-82
2022/12/28 10:58:51;;;;;;;1.87;1.67;;;6.80;99.90;;;;;;5126267;28;20200;-82
2022/12/28 11:01:18;;;;;;;2.83;1.40;;;6.90;99.90;;;;;;5125568;28;20192;-81
2022/12/28 11:03:57;;;;;;;2.83;1.57;;;7.00;99.90;;;;;;5125045;28;20183;-82
2022/12/28 11:06:28;;;;;;;2.17;1.30;;;7.30;99.90;;;;;;5126202;28;20264;-82
2022/12/28 11:09:02;;;;;;;3.60;2.30;;;7.70;99.90;;;;;;5125775;28;20212;-82
2022/12/28 11:11:28;;;;;;;6.30;2.30;;;8.10;99.90;;;;;;5128353;28;20648;-82
2022/12/28 11:14:20;;;;;;;1.83;1.43;;;8.40;99.90;;;;;;5126757;28;20175;-83
2022/12/28 11:16:46;;;;;;;2.87;1.80;;;8.50;99.90;;;;;;5122459;28;20222;-82
2022/12/28 11:19:12;;;;;;;2.90;1.90;;;8.80;99.90;;;;;;5122101;28;20194;-83
2022/12/28 11:21:40;;;;;;;3.80;1.90;;;9.10;99.90;;;;;;5122318;28;20188;-82
2022/12/28 11:24:06;;;;;;;2.60;1.87;;;9.30;99.90;;;;;;5119436;28;20178;-83
2022/12/28 11:26:32;;;;;;;2.43;1.83;;;9.20;99.90;;;;;;5119359;28;20172;-83
2022/12/28 11:29:00;;;;;;;2.83;1.67;;;9.20;99.90;;;;;;5118106;28;20219;-82
2022/12/28 11:31:30;;;;;;;2.87;1.90;;;9.40;99.90;;;;;;5118358;28;20211;-83
2022/12/28 11:34:03;;;;;;;2.77;1.70;;;9.50;99.90;;;;;;5117723;28;20232;-83
2022/12/28 11:36:30;;;;;;;1.80;1.57;;;9.70;99.90;;;;;;5118503;28;20160;-83
2022/12/28 11:38:57;;;;;;;4.63;1.97;;;9.90;99.90;;;;;;5115797;28;20191;-83
2022/12/28 11:41:22;;;;;;;3.57;2.30;;;10.20;99.90;;;;;;5125800;28;20176;-83
2022/12/28 11:43:49;;;;;;;3.13;2.20;;;10.70;99.90;;;;;;5127241;28;20168;-83
2022/12/28 11:46:21;;;;;;;3.20;1.73;;;10.80;99.90;;;;;;5126892;28;20193;-82
2022/12/28 11:48:59;;;;;;;5.67;4.23;;;10.90;99.90;;;;;;5125886;28;20215;-82
2022/12/28 11:51:36;;;;;;;15.90;11.83;;;11.00;99.90;;;;;;5127245;28;20156;-82
2022/12/28 11:54:35;;;;;;;4.83;3.70;;;10.70;99.90;;;;;;5124493;28;20250;-82
2022/12/28 11:57:01;;;;;;;2.03;1.80;;;10.40;99.90;;;;;;5123836;28;20160;-82
2022/12/28 11:59:33;;;;;;;2.37;1.77;;;10.30;99.90;;;;;;5125378;28;20187;-83
2022/12/28 12:02:00;;;;;;;6.00;3.40;;;10.80;99.90;;;;;;5124576;28;20164;-82
2022/12/28 12:04:28;;;;;;;2.60;2.00;;;11.20;99.90;;;;;;5122837;28;20256;-81
2022/12/28 12:06:53;;;;;;;2.57;1.80;;;11.30;99.90;;;;;;5124526;28;20176;-82
2022/12/28 12:09:28;;;;;;;3.77;2.30;;;11.50;99.90;;;;;;5125066;28;20267;-83
2022/12/28 12:11:58;;;;;;;4.47;2.17;;;11.50;99.90;;;;;;5126144;28;20523;-82
2022/12/28 12:14:30;;;;;;;3.43;2.20;;;11.10;99.90;;;;;;5128218;28;20232;-82
2022/12/28 12:17:04;;;;;;;4.97;1.97;;;10.90;99.90;;;;;;5125220;28;20218;-82
2022/12/28 12:19:36;;;;;;;6.17;3.00;;;10.70;99.90;;;;;;5123956;28;20199;-82
2022/12/28 12:22:09;;;;;;;2.13;1.93;;;10.60;99.90;;;;;;5123545;28;20175;-82
2022/12/28 12:24:43;;;;;;;2.30;1.10;;;10.50;99.90;;;;;;5122640;28;20181;-82
2022/12/28 12:27:35;;;;;;;1.60;1.50;;;10.30;99.90;;;;;;5123821;28;20176;-83
2022/12/28 12:30:06;;;;;;;2.30;1.37;;;10.40;99.90;;;;;;5123228;28;20606;-82
2022/12/28 12:32:55;;;;;;;1.27;1.13;;;10.40;99.90;;;;;;5123436;28;20164;-82
2022/12/28 12:35:27;;;;;;;3.80;1.77;;;10.20;99.90;;;;;;5123423;28;20167;-82
2022/12/28 12:38:14;;;;;;;1.57;0.90;;;10.00;99.90;;;;;;5123120;28;20181;-82
2022/12/28 12:40:56;;;;;;;4.53;1.30;;;9.90;99.90;;;;;;5122786;28;20176;-82
2022/12/28 12:43:28;;;;;;;1.53;1.10;;;9.80;99.90;;;;;;5123212;28;20210;-81
2022/12/28 12:46:08;;;;;;;1.97;1.00;;;9.70;99.90;;;;;;5123327;28;20178;-82
2022/12/28 12:48:43;;;;;;;2.47;1.77;;;9.70;99.90;;;;;;5123433;28;20660;-82
2022/12/28 12:51:26;;;;;;;3.23;1.57;;;9.70;99.90;;;;;;5124598;28;20212;-82
2022/12/28 12:54:07;;;;;;;2.33;1.00;;;9.70;99.90;;;;;;5121951;28;20195;-83
2022/12/28 12:56:49;;;;;;;0.90;0.80;;;9.70;99.90;;;;;;5123819;28;20187;-82
2022/12/28 12:59:49;;;;;;;0.90;0.70;;;9.80;99.90;;;;;;5122810;28;20198;-82
2022/12/28 13:02:34;;;;;;;2.30;0.80;;;9.80;99.90;;;;;;5122800;28;20189;-83
2022/12/28 13:05:04;;;;;;;3.67;1.40;;;10.00;99.90;;;;;;5123426;28;20202;-82
2022/12/28 13:07:31;;;;;;;3.00;1.00;;;10.10;99.90;;;;;;5124026;28;20230;-82
2022/12/28 13:10:01;;;;;;;1.97;0.70;;;10.20;99.90;;;;;;5123511;28;20207;-82
2022/12/28 13:12:27;;;;;;;5.70;1.13;;;10.00;99.00;;;;;;5123795;28;20195;-82
2022/12/28 13:14:55;;;;;;;1.40;0.80;;;9.80;99.90;;;;;;5122589;28;20174;-81
2022/12/28 13:17:21;;;;;;;0.80;0.63;;;9.80;99.40;;;;;;5125664;28;20171;-81
2022/12/28 13:19:47;;;;;;;2.60;0.80;;;9.70;98.50;;;;;;5126444;28;20198;-83
2022/12/28 13:22:31;;;;;;;3.80;1.20;;;9.60;98.80;;;;;;5128070;28;20176;-82
2022/12/28 13:25:00;;;;;;;1.13;1.03;;;9.60;99.60;;;;;;5128684;28;20179;-82
2022/12/28 13:27:35;;;;;;;1.40;0.90;;;9.50;99.90;;;;;;5129736;28;20177;-83
2022/12/28 13:30:01;;;;;;;1.27;0.70;;;9.40;98.90;;;;;;5127868;28;20237;-82
2022/12/28 13:32:34;;;;;;;1.00;0.80;;;9.20;98.30;;;;;;5129918;28;20175;-82
2022/12/28 13:35:00;;;;;;;2.07;0.67;;;9.00;99.50;;;;;;5128489;28;20182;-83
2022/12/28 13:37:26;;;;;;;2.20;1.03;;;8.80;99.00;;;;;;5127236;28;20226;-82
2022/12/28 13:40:14;;;;;;;1.53;0.80;;;8.80;98.90;;;;;;5127620;28;20606;-82
2022/12/28 13:43:24;;;;;;;0.90;0.70;;;8.70;99.30;;;;;;5131406;28;20182;-82
2022/12/28 13:46:18;;;;;;;0.67;0.60;;;8.80;99.80;;;;;;5121003;28;20195;-82
2022/12/28 13:48:48;;;;;;;2.20;1.13;;;8.80;99.90;;;;;;5125636;28;20225;-82
2022/12/28 13:51:17;;;;;;;1.00;0.70;;;8.70;99.90;;;;;;5127860;28;20205;-83
2022/12/28 13:53:48;;;;;;;1.50;0.80;;;8.50;99.90;;;;;;5127567;28;20173;-82
2022/12/28 13:56:16;;;;;;;1.07;0.60;;;8.40;99.90;;;;;;5128345;28;20182;-82
2022/12/28 13:58:47;;;;;;;1.40;1.20;;;8.30;99.90;;;;;;5130254;28;20269;-82
2022/12/28 14:01:21;;;;;;;1.57;1.27;;;8.20;99.90;;;;;;5135341;28;20533;-81
2022/12/28 14:03:48;;;;;;;2.47;1.40;;;8.20;99.90;;;;;;5126471;28;20270;-83
2022/12/28 14:06:16;;;;;;;6.67;2.53;;;8.10;99.90;;;;;;5120855;28;20240;-83
2022/12/28 14:08:43;;;;;;;2.10;1.50;;;8.10;99.90;;;;;;5127027;28;20220;-82
2022/12/28 14:11:09;;;;;;;2.67;1.60;;;8.00;99.90;;;;;;5137681;28;20179;-81
2022/12/28 14:13:37;;;;;;;9.10;4.63;;;8.00;99.90;;;;;;5136339;28;20173;-81
2022/12/28 14:16:04;;;;;;;17.63;9.17;;;8.00;99.90;;;;;;5127253;28;20178;-81
2022/12/28 14:18:32;;;;;;;2.63;1.80;;;7.90;99.90;;;;;;5120019;28;20203;-81
2022/12/28 14:20:59;;;;;;;1.50;1.00;;;7.90;99.90;;;;;;5119832;28;20180;-81
2022/12/28 14:23:29;;;;;;;2.53;1.50;;;7.90;99.90;;;;;;5119140;28;20189;-81
2022/12/28 14:26:17;;;;;;;3.60;2.20;;;7.80;99.90;;;;;;5119804;28;20553;-81
2022/12/28 14:28:47;;;;;;;1.07;0.93;;;7.80;99.90;;;;;;5118633;28;20286;-81
2022/12/28 14:31:20;;;;;;;3.07;1.30;;;7.80;99.90;;;;;;5117987;28;20167;-82
2022/12/28 14:33:56;;;;;;;4.27;2.10;;;7.70;99.90;;;;;;5115645;28;20251;-82
2022/12/28 14:36:46;;;;;;;2.20;1.63;;;7.70;99.90;;;;;;5116942;28;20180;-82
2022/12/28 14:39:33;;;;;;;3.37;1.60;;;7.60;99.90;;;;;;5127470;28;20193;-82
2022/12/28 14:42:01;;;;;;;1.30;1.00;;;7.50;99.90;;;;;;5125463;28;20176;-83
2022/12/28 14:44:38;;;;;;;1.07;0.97;;;7.40;99.90;;;;;;5126326;28;20257;-82
2022/12/28 14:47:31;;;;;;;1.97;1.30;;;7.30;99.90;;;;;;5136650;28;20275;-81
2022/12/28 14:49:58;;;;;;;2.33;1.40;;;7.20;99.90;;;;;;5136468;28;20234;-81
2022/12/28 14:52:23;;;;;;;1.47;1.10;;;7.10;99.90;;;;;;5123662;28;20417;-82
2022/12/28 14:54:50;;;;;;;1.97;1.17;;;7.10;99.90;;;;;;5124267;28;20172;-81
2022/12/28 14:57:41;;;;;;;1.43;1.10;;;7.00;99.90;;;;;;5124150;28;20183;-81
2022/12/28 15:00:34;;;;;;;2.43;1.30;;;6.90;99.90;;;;;;5126022;28;20194;-82
2022/12/28 15:03:17;;;;;;;1.97;1.40;;;6.80;99.90;;;;;;5117419;28;20191;-81
2022/12/28 15:05:44;;;;;;;3.00;1.40;;;6.70;99.90;;;;;;5126151;28;20191;-81
2022/12/28 15:08:11;;;;;;;2.00;1.27;;;6.70;99.90;;;;;;5125496;28;20216;-82
2022/12/28 15:10:48;;;;;;;3.73;2.30;;;6.60;99.90;;;;;;5125957;28;20194;-82
2022/12/28 15:13:15;;;;;;;6.40;2.90;;;6.50;99.90;;;;;;5130936;28;20417;-82
2022/12/28 15:15:40;;;;;;;4.43;3.00;;;6.40;99.90;;;;;;5125232;28;20184;-82
2022/12/28 15:18:07;;;;;;;5.53;2.73;;;;;;;;;;5125725;28;20199;-82
2022/12/28 15:20:35;;;;;;;3.20;2.13;;;6.30;99.90;;;;;;5125733;28;20210;-82
2022/12/28 15:23:01;;;;;;;4.33;2.63;;;6.20;99.90;;;;;;5125401;28;20186;-82
2022/12/28 15:25:27;;;;;;;4.20;2.97;;;;;;;;;;5125330;28;20203;-82
2022/12/28 15:27:53;;;;;;;5.30;3.30;;;6.10;99.90;;;;;;5125100;28;20191;-82
2022/12/28 15:30:20;;;;;;;4.97;2.80;;;6.00;99.90;;;;;;5126193;28;20195;-82
2022/12/28 15:32:46;;;;;;;10.77;2.73;;;6.00;99.90;;;;;;5126752;28;20172;-82
2022/12/28 15:35:12;;;;;;;5.67;2.23;;;6.00;99.90;;;;;;5127566;28;20204;-81
2022/12/28 15:37:38;;;;;;;4.63;2.60;;;;;;;;;;5125267;27;20174;-82
2022/12/28 15:40:04;;;;;;;4.43;2.67;;;5.90;99.90;;;;;;5126356;28;20175;-82
2022/12/28 15:42:30;;;;;;;2.93;2.23;;;5.90;99.90;;;;;;5124371;28;20184;-82
2022/12/28 15:44:56;;;;;;;2.87;2.17;;;;;;;;;;5126408;28;20177;-82
2022/12/28 15:47:22;;;;;;;3.27;2.10;;;5.90;99.90;;;;;;5124484;28;20187;-81
2022/12/28 15:49:48;;;;;;;4.27;2.33;;;;;;;;;;5124902;28;20207;-82
2022/12/28 15:52:14;;;;;;;5.00;3.17;;;;;;;;;;5124751;28;20438;-81
2022/12/28 15:54:40;;;;;;;5.97;4.20;;;;;;;;;;5124971;28;20179;-81
2022/12/28 15:57:06;;;;;;;14.53;9.03;;;;;;;;;;5127095;28;20406;-81
2022/12/28 15:59:32;;;;;;;10.77;8.67;;;;;;;;;;5129542;28;20235;-81
2022/12/28 16:01:58;;;;;;;14.53;12.90;;;5.50;99.90;;;;;;5130282;28;20184;-82
2022/12/28 16:04:24;;;;;;;10.73;8.10;;;;;;;;;;5123495;28;20176;-81
2022/12/28 16:06:50;;;;;;;5.70;4.03;;;;;;;;;;5124060;28;20176;-82
2022/12/28 16:09:16;;;;;;;4.67;3.43;;;;;;;;;;5123290;28;20460;-82
2022/12/28 16:11:41;;;;;;;6.77;4.23;;;5.50;99.90;;;;;;5122332;28;20171;-81
2022/12/28 16:14:13;;;;;;;8.43;5.47;;;5.40;99.90;;;;;;5123668;28;20580;-82
2022/12/28 16:16:39;;;;;;;6.87;4.90;;;;;;;;;;5123729;28;20175;-82
2022/12/28 16:19:05;;;;;;;7.10;4.17;;;5.40;99.90;;;;;;5122446;28;20417;-81
2022/12/28 16:21:31;;;;;;;7.80;5.77;;;5.30;99.90;;;;;;5123022;28;20440;-83
2022/12/28 16:23:58;;;;;;;6.87;4.90;;;5.30;99.90;;;;;;5122291;28;20179;-83
2022/12/28 16:26:24;;;;;;;5.63;3.87;;;5.20;99.90;;;;;;5124979;28;20171;-82
2022/12/28 16:28:50;;;;;;;5.07;4.00;;;5.20;99.90;;;;;;5122905;28;20207;-82
2022/12/28 16:31:25;;;;;;;5.37;3.57;;;5.10;99.90;;;;;;5123751;28;20179;-81
2022/12/28 16:33:54;;;;;;;5.83;3.80;;;5.10;99.90;;;;;;5123205;28;20178;-82
2022/12/28 16:36:21;;;;;;;5.50;3.17;;;5.10;99.90;;;;;;5123064;28;20417;-82
2022/12/28 16:38:47;;;;;;;9.60;4.47;;;5.10;99.90;;;;;;5118756;28;20451;-82
2022/12/28 16:41:12;;;;;;;6.23;5.63;;;5.10;99.90;;;;;;5119289;28;20239;-81
2022/12/28 16:43:38;;;;;;;11.40;9.27;;;5.00;99.90;;;;;;5120090;28;20216;-82
2022/12/28 16:46:07;;;;;;;11.33;7.30;;;5.00;99.90;;;;;;5122792;28;20163;-83
2022/12/28 16:48:34;;;;;;;38.97;23.33;;;5.00;99.90;;;;;;5127782;28;20203;-81
2022/12/28 16:51:00;;;;;;;22.43;14.53;;;4.90;99.90;;;;;;5128039;28;20440;-81
2022/12/28 16:53:27;;;;;;;26.77;15.40;;;4.90;99.90;;;;;;5128403;28;20417;-82
2022/12/28 16:55:53;;;;;;;32.97;20.77;;;4.90;99.90;;;;;;5129456;28;20175;-82
2022/12/28 16:58:18;;;;;;;36.27;22.37;;;4.90;99.90;;;;;;5127895;28;20837;-82
2022/12/28 17:00:44;;;;;;;40.77;24.30;;;4.80;99.90;;;;;;5129943;28;20186;-82
